Time;durP1;ratioP1;P1;durP2;ratioP2;P2;SDS_P1;SDS_P2;PMS_P1;PMS_P2;Temp;Humidity;BMP_temperature;BMP_pressure;BME280_temperature;BME280_humidity;BME280_pressure;Samples;Min_cycle;Max_cycle;Signal;HPM_P1;HPM_P2
2022/03/24 00:04:22;;;;;;;45.43;24.27;;;;;;;4.58;59.52;101827.55;3615052;80;98834;-80
2022/03/24 00:09:23;;;;;;;49.97;24.73;;;;;;;4.48;59.44;101826.38;3669266;78;98585;-81
2022/03/24 00:14:24;;;;;;;54.37;26.63;;;;;;;4.41;59.93;101827.35;3692008;78;98497;-79
2022/03/24 00:19:26;;;;;;;48.45;25.52;;;;;;;4.32;60.29;101820.97;3686399;78;98709;-81
2022/03/24 00:24:27;;;;;;;52.63;26.70;;;;;;;4.25;60.71;101828.75;3686181;78;98850;-80
2022/03/24 00:29:28;;;;;;;45.80;24.57;;;;;;;4.13;61.00;101823.52;3692345;78;98761;-80
2022/03/24 00:34:29;;;;;;;48.70;25.33;;;;;;;3.97;61.24;101827.63;3680961;80;98739;-81
2022/03/24 00:39:34;;;;;;;49.63;26.07;;;;;;;3.77;61.57;101831.50;3667027;78;99229;-80
2022/03/24 00:44:36;;;;;;;51.10;25.33;;;;;;;3.62;62.40;101827.69;3626374;79;99034;-81
2022/03/24 00:49:38;;;;;;;51.27;26.67;;;;;;;3.48;62.84;101826.81;3687695;79;98446;-80
2022/03/24 00:54:39;;;;;;;52.50;25.53;;;;;;;3.41;63.38;101823.66;3639246;79;122507;-80
2022/03/24 00:59:41;;;;;;;52.83;26.10;;;;;;;3.30;63.71;101824.09;3644363;79;99037;-81
2022/03/24 01:04:42;;;;;;;52.10;26.77;;;;;;;3.20;63.90;101827.78;3601565;80;98848;-81
2022/03/24 01:09:43;;;;;;;57.93;29.02;;;;;;;3.11;64.53;101826.81;3644374;79;98839;-81
2022/03/24 01:14:44;;;;;;;51.93;26.97;;;;;;;3.00;64.69;101822.62;3639346;79;98614;-80
2022/03/24 01:19:45;;;;;;;58.43;26.90;;;;;;;2.90;64.90;101820.59;3645983;80;99153;-82
2022/03/24 01:24:47;;;;;;;51.47;25.73;;;;;;;2.82;65.06;101823.41;3636053;80;98994;-82
2022/03/24 01:29:49;;;;;;;54.93;27.97;;;;;;;2.78;66.04;101819.66;3649324;77;98850;-80
2022/03/24 01:34:50;;;;;;;55.40;27.33;;;;;;;2.70;66.05;101817.59;3639261;79;99195;-80
2022/03/24 01:39:52;;;;;;;49.77;25.97;;;;;;;2.58;66.42;101823.97;3646370;77;98718;-80
2022/03/24 01:44:56;;;;;;;50.30;26.20;;;;;;;2.45;66.61;101817.89;3635997;79;99161;-80
2022/03/24 01:49:58;;;;;;;57.37;27.30;;;;;;;2.42;67.14;101821.73;3648627;79;26009;-81
2022/03/24 01:55:00;;;;;;;56.60;28.23;;;;;;;2.34;67.36;101815.02;3637995;79;98591;-80
2022/03/24 02:00:04;;;;;;;52.27;27.10;;;;;;;2.26;67.67;101816.20;3644603;77;99228;-80
2022/03/24 02:05:06;;;;;;;54.53;28.73;;;;;;;2.19;67.97;101815.18;3641341;79;98377;-80
2022/03/24 02:10:09;;;;;;;57.83;29.70;;;;;;;2.14;68.29;101814.44;3641716;79;99214;-80
2022/03/24 02:15:10;;;;;;;60.05;29.07;;;;;;;2.09;68.33;101830.78;3637039;79;98768;-80
2022/03/24 02:20:11;;;;;;;58.70;30.00;;;;;;;2.02;68.27;101824.88;3645363;81;32879;-80
2022/03/24 02:25:12;;;;;;;57.87;30.37;;;;;;;2.00;69.03;101831.13;3691637;77;98963;-80
2022/03/24 02:30:13;;;;;;;63.07;29.90;;;;;;;1.93;69.09;101824.70;3699883;78;97825;-79
2022/03/24 02:35:14;;;;;;;60.93;31.23;;;;;;;1.88;69.60;101830.70;3641903;80;98835;-80
2022/03/24 02:40:15;;;;;;;56.47;28.10;;;;;;;1.78;69.81;101826.18;3693930;80;98833;-81
2022/03/24 02:45:17;;;;;;;54.33;28.90;;;;;;;1.68;69.76;101837.66;3646346;77;98735;-80
2022/03/24 02:50:19;;;;;;;59.57;29.40;;;;;;;1.59;69.91;101833.38;3690271;78;32872;-80
2022/03/24 02:55:20;;;;;;;58.13;29.27;;;;;;;1.54;70.27;101830.70;3686862;78;98913;-81
2022/03/24 03:00:25;;;;;;;60.80;31.00;;;;;;;1.47;70.46;101825.33;3648480;79;98696;-81
2022/03/24 03:05:25;;;;;;;55.52;27.22;;;;;;;1.38;70.60;101830.55;3698669;78;98576;-81
2022/03/24 03:10:25;;;;;;;54.83;27.33;;;;;;;1.33;71.10;101831.14;3693850;78;98774;-80
2022/03/24 03:15:27;;;;;;;57.73;28.47;;;;;;;1.27;70.92;101829.56;3692300;77;98759;-82
2022/03/24 03:20:28;;;;;;;49.10;24.70;;;;;;;1.23;70.68;101829.31;3649505;81;33057;-81
2022/03/24 03:25:29;;;;;;;50.60;26.60;;;;;;;1.21;71.14;101836.91;3687198;78;98723;-81
2022/03/24 03:30:30;;;;;;;56.20;29.50;;;;;;;1.16;71.18;101834.78;3701310;78;98988;-81
2022/03/24 03:35:31;;;;;;;55.20;26.83;;;;;;;1.15;71.06;101835.88;3642174;80;98810;-81
2022/03/24 03:40:32;;;;;;;60.13;29.20;;;;;;;1.10;71.46;101839.98;3693892;78;98775;-82
2022/03/24 03:45:33;;;;;;;57.43;30.10;;;;;;;1.06;71.93;101847.86;3687167;79;98845;-81
2022/03/24 03:50:34;;;;;;;62.03;30.07;;;;;;;0.99;71.90;101847.90;3648881;79;32877;-79
2022/03/24 03:55:37;;;;;;;62.57;29.47;;;;;;;0.95;72.65;101846.30;3691647;78;98625;-80
2022/03/24 04:00:53;;;;;;;56.20;29.23;;;;;;;0.87;73.08;101852.28;3687848;79;98694;-81
2022/03/24 04:05:58;;;;;;;61.30;29.42;;;;;;;0.82;72.79;101846.09;3634196;79;98806;-80
2022/03/24 04:11:00;;;;;;;60.83;30.63;;;;;;;0.77;74.01;101852.32;3643768;79;97978;-81
2022/03/24 04:16:03;;;;;;;55.95;26.42;;;;;;;0.72;74.12;101850.19;3636886;80;99126;-81
2022/03/24 04:21:04;;;;;;;63.77;30.20;;;;;;;0.67;74.70;101846.14;3642581;80;98859;-81
2022/03/24 04:26:06;;;;;;;58.90;29.63;;;;;;;0.64;75.48;101843.97;3637716;79;98757;-80
2022/03/24 04:31:07;;;;;;;71.90;31.77;;;;;;;0.61;74.92;101850.75;3644832;79;98646;-81
2022/03/24 04:36:09;;;;;;;64.90;29.90;;;;;;;0.62;74.14;101854.29;3638096;80;98770;-81
2022/03/24 04:41:10;;;;;;;60.10;29.17;;;;;;;0.59;74.74;101850.77;3642978;80;99204;-81
2022/03/24 04:46:12;;;;;;;65.37;31.55;;;;;;;0.58;74.02;101856.74;3609665;80;98851;-81
2022/03/24 04:51:13;;;;;;;61.50;31.53;;;;;;;0.55;74.70;101857.28;3643222;79;98836;-80
2022/03/24 04:56:14;;;;;;;62.43;28.90;;;;;;;0.52;74.45;101853.78;3599433;80;98185;-81
2022/03/24 05:01:16;;;;;;;59.23;28.93;;;;;;;0.50;74.03;101851.08;3584445;81;98708;-81
2022/03/24 05:06:17;;;;;;;61.20;29.63;;;;;;;0.49;74.02;101847.55;3563351;81;98703;-81
2022/03/24 05:11:18;;;;;;;59.23;30.20;;;;;;;0.48;75.20;101855.95;3585250;79;98850;-81
2022/03/24 05:16:19;;;;;;;62.00;30.67;;;;;;;0.42;75.69;101848.92;3581819;80;98760;-81
2022/03/24 05:21:23;;;;;;;67.13;31.73;;;;;;;0.38;77.02;101843.25;3584386;81;98776;-81
2022/03/24 05:26:24;;;;;;;63.07;31.03;;;;;;;0.33;78.11;101849.24;3573711;81;26624;-80
2022/03/24 05:31:26;;;;;;;63.37;29.60;;;;;;;0.32;78.15;101847.06;3578377;81;98978;-80
2022/03/24 05:36:27;;;;;;;66.73;33.23;;;;;;;0.35;77.98;101854.66;3582069;81;98657;-81
2022/03/24 05:41:28;;;;;;;56.80;28.67;;;;;;;0.37;79.29;101852.47;3578229;81;99027;-80
2022/03/24 05:46:33;;;;;;;64.40;30.03;;;;;;;0.43;78.62;101855.43;3583978;81;98951;-80
2022/03/24 05:51:34;;;;;;;60.67;30.60;;;;;;;0.49;79.84;101855.68;3576352;79;101330;-81
2022/03/24 05:56:36;;;;;;;67.10;32.47;;;;;;;0.55;80.32;101851.86;3586700;81;26463;-81
2022/03/24 06:01:39;;;;;;;58.67;28.40;;;;;;;0.62;80.01;101863.20;3631848;78;99087;-81
2022/03/24 06:06:41;;;;;;;59.10;28.83;;;;;;;0.70;79.41;101869.42;3610962;79;98615;-81
2022/03/24 06:11:44;;;;;;;63.50;31.60;;;;;;;0.82;80.92;101869.12;3640783;79;98854;-81
2022/03/24 06:16:47;;;;;;;63.27;30.60;;;;;;;1.00;81.09;101863.07;3639202;79;98867;-82
2022/03/24 06:21:49;;;;;;;67.62;32.23;;;;;;;1.16;81.14;101879.52;3638474;79;98791;-81
2022/03/24 06:26:52;;;;;;;65.70;31.27;;;;;;;1.30;80.80;101875.91;3642655;79;98944;-79
2022/03/24 06:31:53;;;;;;;61.88;30.23;;;;;;;1.47;80.82;101873.63;3613273;79;98919;-83
2022/03/24 06:36:54;;;;;;;60.83;29.10;;;;;;;1.71;80.77;101877.81;3648013;79;97755;-81
2022/03/24 06:41:55;;;;;;;59.95;28.73;;;;;;;1.93;79.87;101880.88;3636964;78;98773;-80
2022/03/24 06:46:57;;;;;;;39.97;18.93;;;;;;;2.05;78.41;101884.86;3631164;79;98821;-80
2022/03/24 06:51:58;;;;;;;38.35;18.57;;;;;;;2.52;76.84;101874.61;3638930;79;98791;-80
2022/03/24 06:56:59;;;;;;;39.73;19.87;;;;;;;3.16;74.58;101875.71;3645886;79;98871;-80
2022/03/24 07:02:02;;;;;;;39.37;17.20;;;;;;;3.39;73.54;101877.56;3634625;79;98932;-80
2022/03/24 07:07:04;;;;;;;41.00;20.43;;;;;;;3.53;72.45;101883.89;3644950;79;98725;-81
2022/03/24 07:12:06;;;;;;;38.20;18.50;;;;;;;4.05;71.42;101884.95;3644909;79;99136;-80
2022/03/24 07:17:08;;;;;;;40.33;21.83;;;;;;;4.26;70.47;101888.16;3647392;79;98031;-81
2022/03/24 07:22:09;;;;;;;43.95;21.02;;;;;;;4.63;69.74;101894.83;3636513;79;98951;-81
2022/03/24 07:27:11;;;;;;;46.93;24.00;;;;;;;4.92;69.26;101889.88;3645509;79;98862;-81
2022/03/24 07:32:12;;;;;;;42.38;22.30;;;;;;;5.26;67.73;101886.15;3639008;79;98936;-81
2022/03/24 07:37:14;;;;;;;52.17;25.07;;;;;;;5.41;67.49;101885.25;3644589;79;98743;-81
2022/03/24 07:42:15;;;;;;;53.73;25.60;;;;;;;5.59;67.05;101883.48;3622161;79;99119;-81
2022/03/24 07:47:16;;;;;;;53.20;28.07;;;;;;;5.74;66.98;101885.87;3629952;79;98810;-81
2022/03/24 07:52:17;;;;;;;53.83;24.50;;;;;;;5.95;66.23;101894.66;3613441;80;99149;-81
2022/03/24 07:57:18;;;;;;;50.47;24.83;;;;;;;6.01;65.94;101887.15;3630231;80;98786;-81
2022/03/24 08:02:19;;;;;;;49.63;25.43;;;;;;;6.10;65.21;101882.53;3635688;79;99101;-81
2022/03/24 08:07:21;;;;;;;41.57;22.57;;;;;;;6.23;63.87;101887.92;3636768;79;98600;-81
2022/03/24 08:12:22;;;;;;;43.10;22.60;;;;;;;6.42;63.32;101887.16;3632462;79;99052;-81
2022/03/24 08:17:23;;;;;;;37.60;21.23;;;;;;;6.66;62.48;101884.06;3641569;79;98764;-81
2022/03/24 08:22:24;;;;;;;41.97;21.50;;;;;;;6.96;60.64;101889.48;3623375;79;99318;-82
2022/03/24 08:27:25;;;;;;;35.40;18.43;;;;;;;7.24;60.11;101885.91;3597816;81;98914;-81
2022/03/24 08:32:26;;;;;;;35.27;17.53;;;;;;;7.45;58.75;101888.29;3630380;79;99178;-81
2022/03/24 08:37:27;;;;;;;31.07;15.53;;;;;;;7.77;56.35;101889.20;3640817;79;98699;-81
2022/03/24 08:42:28;;;;;;;31.33;17.05;;;;;;;8.27;55.96;101878.77;3640965;79;99185;-79
2022/03/24 08:47:29;;;;;;;28.52;16.20;;;;;;;8.27;55.96;101878.77;3644513;79;98996;-79
2022/03/24 08:52:30;;;;;;;30.93;17.90;;;;;;;8.79;55.02;101895.88;3625401;80;99077;-79
2022/03/24 08:57:32;;;;;;;28.73;14.20;;;;;;;9.41;54.43;101900.94;3638292;79;98927;-80
2022/03/24 09:02:34;;;;;;;27.13;15.97;;;;;;;10.01;52.96;101899.34;3641515;79;98624;-80
2022/03/24 09:07:37;;;;;;;25.57;15.98;;;;;;;10.94;53.60;101895.33;3642548;79;98224;-80
2022/03/24 09:12:44;;;;;;;25.50;15.95;;;;;;;12.12;52.58;101891.91;3635825;79;99214;-81
2022/03/24 09:17:45;;;;;;;25.57;16.05;;;;;;;13.05;49.28;101892.03;3640031;79;99631;-80
2022/03/24 09:22:48;;;;;;;23.27;13.53;;;;;;;14.03;48.38;101900.59;3640491;79;99214;-79
2022/03/24 09:27:49;;;;;;;23.85;14.83;;;;;;;15.11;47.19;101901.02;3620984;79;98397;-79
2022/03/24 09:32:51;;;;;;;20.08;10.60;;;;;;;15.75;43.71;101889.11;3642165;79;98852;-80
2022/03/24 09:37:54;;;;;;;46.35;15.20;;;;;;;16.33;43.76;101883.85;3646478;79;99175;-80
2022/03/24 09:42:57;;;;;;;45.65;17.95;;;;;;;17.10;40.87;101890.16;3639840;79;99304;-80
2022/03/24 09:47:59;;;;;;;22.73;15.78;;;;;;;17.95;40.78;101884.77;3607601;80;99166;-80
2022/03/24 09:53:01;;;;;;;23.67;14.50;;;;;;;18.83;40.03;101897.54;3627748;79;99257;-80
2022/03/24 09:58:02;;;;;;;22.13;13.95;;;;;;;19.18;37.25;101885.78;3647644;79;99212;-80
2022/03/24 10:03:16;;;;;;;22.32;12.47;;;;;;;19.43;36.48;101886.58;3641931;79;99201;-79
2022/03/24 10:08:18;;;;;;;26.12;12.95;;;;;;;20.21;33.45;101885.13;3649682;79;33016;-80
2022/03/24 10:13:44;;;;;;;23.27;12.75;;;;;;;19.96;33.62;101883.63;3640650;79;99341;-80
2022/03/24 10:19:01;;;;;;;18.87;13.00;;;;;;;19.91;31.55;101876.47;3639564;80;99353;-79
2022/03/24 10:24:08;;;;;;;24.02;12.70;;;;;;;20.27;31.72;101873.70;3641437;79;99380;-79
2022/03/24 10:29:13;;;;;;;19.95;13.08;;;;;;;20.82;31.86;101877.33;3637509;79;99628;-80
2022/03/24 10:34:14;;;;;;;18.67;12.65;;;;;;;21.20;30.20;101865.02;3638915;80;99340;-80
2022/03/24 10:39:15;;;;;;;23.90;13.47;;;;;;;20.59;29.14;101865.91;3648140;79;99199;-80
2022/03/24 10:44:16;;;;;;;17.97;11.53;;;;;;;20.93;29.59;101863.29;3635750;79;99110;-80
2022/03/24 10:49:24;;;;;;;21.50;12.20;;;;;;;20.74;28.90;101852.61;3647804;79;99010;-80
2022/03/24 10:54:38;;;;;;;27.98;14.13;;;;;;;20.85;27.64;101848.53;3627771;79;99362;-80
2022/03/24 10:59:58;;;;;;;21.77;13.38;;;;;;;20.96;28.32;101851.25;3645681;79;99152;-80
2022/03/24 11:05:03;;;;;;;23.52;12.33;;;;;;;21.16;27.57;101849.48;3638189;79;99179;-81
2022/03/24 11:10:16;;;;;;;22.82;12.93;;;;;;;21.39;27.66;101846.83;3663639;78;99213;-80
2022/03/24 11:15:19;;;;;;;19.30;11.48;;;;;;;21.59;28.17;101843.61;3678746;78;99260;-79
2022/03/24 11:20:31;;;;;;;18.48;10.98;;;;;;;21.90;27.50;101841.84;3669248;80;33036;-79
2022/03/24 11:25:32;;;;;;;19.40;11.78;;;;;;;21.74;26.75;101833.87;3637005;78;99146;-80
2022/03/24 11:30:34;;;;;;;18.13;10.70;;;;;;;21.51;26.53;101828.89;3657615;80;99121;-79
2022/03/24 11:35:36;;;;;;;23.15;11.22;;;;;;;21.43;26.25;101825.99;3654871;80;99189;-79
2022/03/24 11:40:39;;;;;;;22.85;12.13;;;;;;;21.51;27.04;101819.67;3664232;78;99137;-79
2022/03/24 11:46:06;;;;;;;18.50;10.98;;;;;;;21.40;26.20;101813.41;3660598;78;99529;-79
2022/03/24 11:51:19;;;;;;;17.57;10.95;;;;;;;21.54;26.38;101816.86;3674133;80;99143;-79
2022/03/24 11:56:21;;;;;;;21.35;10.53;;;;;;;21.32;25.66;101816.11;3659237;78;99056;-79
2022/03/24 12:01:29;;;;;;;17.52;11.22;;;;;;;21.10;26.61;101815.52;3660604;80;100520;-77
2022/03/24 12:06:48;;;;;;;22.45;11.57;;;;;;;21.19;25.83;101809.45;3678936;79;99527;-80
2022/03/24 12:11:53;;;;;;;24.43;13.25;;;;;;;21.08;25.85;101800.38;3664798;78;99530;-78
2022/03/24 12:16:54;;;;;;;23.90;13.08;;;;;;;20.77;25.10;101791.63;3677473;78;99221;-79
2022/03/24 12:21:58;;;;;;;32.65;13.38;;;;;;;20.02;25.62;101782.77;3669794;78;99490;-79
2022/03/24 12:27:01;;;;;;;18.67;11.45;;;;;;;19.97;25.66;101784.01;3681186;78;99243;-80
2022/03/24 12:32:06;;;;;;;17.37;10.65;;;;;;;19.72;25.41;101783.33;3678893;78;99323;-79
2022/03/24 12:37:29;;;;;;;20.88;12.75;;;;;;;19.40;26.15;101779.09;3672865;78;98964;-79
2022/03/24 12:42:45;;;;;;;17.50;10.58;;;;;;;19.49;25.32;101773.85;3656403;78;99224;-79
2022/03/24 12:47:47;;;;;;;16.77;11.10;;;;;;;19.11;26.82;101779.73;3677136;78;99230;-79
2022/03/24 12:52:56;;;;;;;14.98;9.35;;;;;;;18.90;26.31;101765.82;3667061;78;99370;-80
2022/03/24 12:58:04;;;;;;;18.48;10.40;;;;;;;18.76;27.44;101766.44;3668240;78;99042;-81
2022/03/24 13:03:06;;;;;;;17.37;8.95;;;;;;;18.72;27.67;101756.69;3678472;78;99138;-80
2022/03/24 13:08:11;;;;;;;14.50;8.98;;;;;;;18.96;27.19;101754.44;3678760;80;32916;-80
2022/03/24 13:13:12;;;;;;;18.60;9.83;;;;;;;18.78;25.62;101748.11;3672273;78;99270;-80
2022/03/24 13:18:14;;;;;;;28.97;10.53;;;;;;;18.52;27.23;101749.91;3674488;78;99046;-81
2022/03/24 13:23:17;;;;;;;14.25;9.13;;;;;;;18.35;26.07;101735.97;3660605;78;99241;-80
2022/03/24 13:28:19;;;;;;;17.42;9.23;;;;;;;18.25;27.11;101733.36;3676716;79;98961;-81
2022/03/24 13:33:25;;;;;;;14.50;7.45;;;;;;;18.16;25.37;101730.16;3670807;78;99231;-80
2022/03/24 13:38:27;;;;;;;16.77;8.83;;;;;;;18.12;28.75;101725.20;3662716;79;26505;-80
2022/03/24 13:43:28;;;;;;;14.10;7.85;;;;;;;18.11;27.75;101724.19;3664788;78;99169;-79
2022/03/24 13:48:29;;;;;;;20.93;8.13;;;;;;;18.11;28.41;101724.19;3653844;80;98863;-79
2022/03/24 13:53:32;;;;;;;12.07;6.92;;;;;;;18.07;27.88;101714.45;3645829;78;99327;-79
2022/03/24 13:58:33;;;;;;;13.80;6.35;;;;;;;17.95;29.10;101709.84;3656757;78;99429;-80
2022/03/24 14:03:40;;;;;;;12.90;7.13;;;;;;;17.91;28.05;101708.45;3648535;79;98972;-80
2022/03/24 14:08:50;;;;;;;11.90;6.55;;;;;;;17.63;27.50;101696.45;3650570;79;33172;-79
2022/03/24 14:13:56;;;;;;;23.10;7.85;;;;;;;17.42;27.84;101694.41;3640930;79;99179;-79
2022/03/24 14:19:15;;;;;;;15.15;7.20;;;;;;;17.37;28.98;101700.91;3607773;79;97999;-79
2022/03/24 14:24:39;;;;;;;10.85;6.00;;;;;;;17.44;29.33;101691.23;3648846;79;99226;-79
2022/03/24 14:30:01;;;;;;;13.83;6.42;;;;;;;17.14;29.41;101683.14;3648240;78;99028;-79
2022/03/24 14:35:22;;;;;;;13.32;6.80;;;;;;;16.97;30.85;101679.69;3647015;80;99004;-79
2022/03/24 14:40:42;;;;;;;15.18;7.12;;;;;;;16.74;29.74;101668.64;3641412;80;99018;-80
2022/03/24 14:45:48;;;;;;;12.98;6.70;;;;;;;16.46;29.17;101669.23;3582152;80;99077;-79
2022/03/24 14:50:50;;;;;;;12.70;7.12;;;;;;;16.31;29.34;101670.31;3556118;80;33374;-79
2022/03/24 14:55:52;;;;;;;15.80;7.73;;;;;;;16.17;30.77;101670.19;3596397;80;98974;-79
2022/03/24 15:00:53;;;;;;;12.17;5.70;;;;;;;16.04;29.88;101658.38;3598382;81;98835;-79
2022/03/24 15:05:54;;;;;;;13.73;6.77;;;;;;;15.84;30.57;101649.47;3607428;80;99000;-80
2022/03/24 15:10:55;;;;;;;10.73;5.60;;;;;;;15.81;30.67;101646.06;3616230;79;99034;-79
2022/03/24 15:16:06;;;;;;;12.63;6.57;;;;;;;15.58;33.57;101641.89;3632382;79;99097;-80
2022/03/24 15:21:07;;;;;;;14.43;6.85;;;;;;;15.59;32.91;101637.94;3588079;80;99041;-81
2022/03/24 15:26:09;;;;;;;12.03;5.90;;;;;;;15.51;31.58;101639.84;3593641;80;98567;-81
2022/03/24 15:31:10;;;;;;;9.73;5.33;;;;;;;15.24;33.17;101641.67;3589825;81;98850;-81
2022/03/24 15:36:11;;;;;;;12.97;5.67;;;;;;;15.10;34.61;101640.14;3573659;80;98974;-79
2022/03/24 15:41:13;;;;;;;14.13;6.43;;;;;;;15.06;35.09;101635.12;3593724;80;99058;-80
2022/03/24 15:46:14;;;;;;;13.40;6.33;;;;;;;14.97;34.59;101636.00;3607609;80;98980;-80
2022/03/24 15:51:16;;;;;;;13.73;6.90;;;;;;;14.85;32.64;101628.73;3613590;80;98972;-80
2022/03/24 15:56:17;;;;;;;11.60;5.93;;;;;;;14.72;33.53;101631.52;3600988;81;99101;-80
2022/03/24 16:01:18;;;;;;;13.67;6.67;;;;;;;14.64;34.89;101635.95;3650783;78;98749;-80
2022/03/24 16:06:19;;;;;;;14.93;7.93;;;;;;;14.47;34.04;101640.66;3660464;79;99053;-80
2022/03/24 16:11:20;;;;;;;12.00;6.80;;;;;;;14.31;34.12;101628.38;3651490;78;99430;-80
2022/03/24 16:16:21;;;;;;;12.53;6.77;;;;;;;14.25;37.24;101638.75;3664708;78;98974;-80
2022/03/24 16:21:24;;;;;;;14.40;7.80;;;;;;;14.17;37.13;101635.04;3678223;79;99382;-77
2022/03/24 16:26:25;;;;;;;15.40;7.53;;;;;;;14.00;34.76;101636.94;3668424;78;28837;-80
2022/03/24 16:31:26;;;;;;;12.70;6.60;;;;;;;13.85;38.20;101632.33;3672819;78;99325;-80
2022/03/24 16:36:27;;;;;;;11.43;6.10;;;;;;;13.77;38.58;101640.31;3679835;78;98126;-79
2022/03/24 16:41:28;;;;;;;13.60;6.57;;;;;;;13.64;38.58;101637.52;3674776;79;99311;-80
2022/03/24 16:46:31;;;;;;;13.03;6.80;;;;;;;13.50;39.73;101642.78;3666608;78;99066;-79
2022/03/24 16:51:32;;;;;;;12.17;6.13;;;;;;;13.38;40.24;101634.67;3671084;78;99233;-80
2022/03/24 16:56:34;;;;;;;13.43;6.27;;;;;;;13.22;41.18;101640.88;3677447;79;26566;-80
2022/03/24 17:01:35;;;;;;;19.35;8.58;;;;;;;12.70;40.05;101635.00;3671692;79;99194;-80
2022/03/24 17:06:38;;;;;;;17.17;9.07;;;;;;;12.70;40.05;101635.00;3682134;79;98810;-80
2022/03/24 17:11:40;;;;;;;20.90;9.33;;;;;;;12.42;40.79;101639.12;3668513;78;99031;-79
2022/03/24 17:16:42;;;;;;;17.40;9.58;;;;;;;12.22;41.22;101639.63;3621928;79;99023;-80
2022/03/24 17:21:43;;;;;;;18.35;11.08;;;;;;;11.93;41.16;101650.36;3654207;79;99073;-79
2022/03/24 17:26:44;;;;;;;19.10;10.20;;;;;;;11.73;41.73;101644.52;3678628;79;31622;-80
2022/03/24 17:31:45;;;;;;;19.07;10.27;;;;;;;11.54;42.41;101649.31;3653790;79;99065;-79
2022/03/24 17:36:46;;;;;;;29.60;12.47;;;;;;;11.33;42.93;101656.22;3591174;81;98806;-79
2022/03/24 17:41:48;;;;;;;24.67;12.33;;;;;;;11.10;43.52;101649.64;3608024;79;99578;-79
2022/03/24 17:46:51;;;;;;;34.53;14.93;;;;;;;10.84;43.91;101648.71;3593704;81;98839;-79
2022/03/24 17:51:55;;;;;;;50.17;23.05;;;;;;;10.60;44.83;101654.86;3568427;80;99642;-80
2022/03/24 17:56:58;;;;;;;51.80;24.65;;;;;;;10.34;44.88;101653.05;3627324;80;33235;-80
2022/03/24 18:02:00;;;;;;;48.13;22.70;;;;;;;10.07;45.56;101663.38;3683947;78;99312;-80
2022/03/24 18:07:06;;;;;;;46.30;22.70;;;;;;;9.85;46.06;101663.80;3683492;79;98853;-79
2022/03/24 18:12:08;;;;;;;40.20;21.27;;;;;;;9.60;46.39;101667.08;3676289;78;99015;-81
2022/03/24 18:17:11;;;;;;;39.35;21.30;;;;;;;9.36;46.94;101668.39;3693605;77;97983;-80
2022/03/24 18:22:14;;;;;;;41.33;20.23;;;;;;;9.18;47.04;101675.20;3657667;79;99086;-81
2022/03/24 18:27:15;;;;;;;35.07;18.27;;;;;;;8.97;47.43;101676.35;3671929;77;98782;-81
2022/03/24 18:32:18;;;;;;;34.93;18.07;;;;;;;8.71;47.78;101686.16;3678982;78;98945;-81
2022/03/24 18:37:20;;;;;;;31.93;16.97;;;;;;;8.51;48.14;101684.78;3688573;79;99040;-82
2022/03/24 18:42:23;;;;;;;32.17;17.13;;;;;;;8.25;48.34;101680.83;3681433;78;99106;-81
2022/03/24 18:47:24;;;;;;;31.27;16.50;;;;;;;8.07;49.28;101687.48;3688604;79;99248;-83
2022/03/24 18:52:26;;;;;;;36.33;18.93;;;;;;;7.94;49.83;101676.73;3679025;78;99135;-82
2022/03/24 18:57:28;;;;;;;39.13;17.87;;;;;;;7.81;50.28;101679.92;3690548;79;98948;-82
2022/03/24 19:02:30;;;;;;;42.47;19.93;;;;;;;7.63;49.66;101680.33;3685115;78;98599;-80
2022/03/24 19:07:33;;;;;;;44.93;24.20;;;;;;;7.43;50.55;101682.38;3683708;78;98605;-81
2022/03/24 19:12:34;;;;;;;62.20;29.35;;;;;;;7.26;51.08;101679.09;3686594;78;98970;-80
2022/03/24 19:17:35;;;;;;;84.17;39.03;;;;;;;7.14;50.86;101690.48;3649236;78;98877;-79
2022/03/24 19:22:37;;;;;;;97.10;43.68;;;;;;;6.97;51.30;101685.81;3682370;78;98873;-80
2022/03/24 19:27:41;;;;;;;122.05;51.00;;;;;;;6.80;52.15;101694.02;3678802;80;97983;-80
2022/03/24 19:32:44;;;;;;;124.85;51.42;;;;;;;6.67;52.32;101688.70;3649505;79;98860;-80
2022/03/24 19:37:46;;;;;;;124.82;47.60;;;;;;;6.53;52.64;101692.13;3677853;78;98899;-80
2022/03/24 19:42:49;;;;;;;134.22;46.90;;;;;;;6.41;53.26;101693.31;3643594;78;99564;-80
2022/03/24 19:47:50;;;;;;;135.17;53.90;;;;;;;6.31;52.79;101692.23;3698408;78;99397;-78
2022/03/24 19:52:54;;;;;;;147.03;57.90;;;;;;;6.19;53.05;101678.38;3656359;77;98976;-80
2022/03/24 19:57:58;;;;;;;142.75;56.98;;;;;;;6.06;53.56;101681.47;3670098;78;99060;-79
2022/03/24 20:02:59;;;;;;;157.75;59.23;;;;;;;5.92;53.60;101688.98;3671273;78;98948;-79
2022/03/24 20:08:00;;;;;;;137.20;52.00;;;;;;;5.79;53.38;101689.84;3668515;79;98561;-79
2022/03/24 20:13:01;;;;;;;117.60;44.77;;;;;;;5.70;53.70;101697.76;3661668;78;99163;-79
2022/03/24 20:18:06;;;;;;;121.73;47.23;;;;;;;5.60;53.71;101705.67;3722975;78;98917;-79
2022/03/24 20:23:08;;;;;;;102.32;42.45;;;;;;;5.60;53.38;101704.84;3703034;78;99325;-81
2022/03/24 20:28:09;;;;;;;93.97;42.17;;;;;;;5.55;53.98;101698.15;3674205;78;99390;-80
2022/03/24 20:33:12;;;;;;;91.67;39.98;;;;;;;5.46;54.79;101691.85;3676870;78;98940;-81
2022/03/24 20:38:13;;;;;;;98.22;43.02;;;;;;;5.38;55.08;101703.51;3692529;78;32342;-79
2022/03/24 20:43:14;;;;;;;106.93;48.33;;;;;;;5.27;55.46;101693.96;3668351;78;99072;-81
2022/03/24 20:48:15;;;;;;;110.97;49.40;;;;;;;5.17;55.51;101697.75;3673742;80;99288;-80
2022/03/24 20:53:16;;;;;;;87.33;39.47;;;;;;;5.02;55.65;101695.38;3683502;78;99014;-80
2022/03/24 20:58:18;;;;;;;93.27;42.63;;;;;;;4.92;56.35;101692.89;3677040;79;99189;-81
2022/03/24 21:03:22;;;;;;;86.40;38.45;;;;;;;4.79;56.37;101691.02;3697506;78;99172;-80
2022/03/24 21:08:26;;;;;;;78.28;34.40;;;;;;;4.69;57.17;101695.91;3641991;80;32455;-81
2022/03/24 21:13:29;;;;;;;72.25;31.97;;;;;;;4.65;57.86;101695.70;3686944;78;98833;-81
2022/03/24 21:18:30;;;;;;;68.62;30.27;;;;;;;4.53;56.68;101694.06;3635942;80;98691;-81
2022/03/24 21:23:31;;;;;;;72.20;32.30;;;;;;;4.43;57.40;101697.00;3666765;78;98871;-82
2022/03/24 21:28:32;;;;;;;64.10;31.40;;;;;;;4.38;57.92;101694.95;3658489;79;98742;-80
2022/03/24 21:33:33;;;;;;;60.00;29.80;;;;;;;4.30;57.38;101695.66;3660713;78;98794;-81
2022/03/24 21:38:37;;;;;;;62.33;31.30;;;;;;;4.19;57.54;101699.16;3678068;79;32128;-80
2022/03/24 21:43:38;;;;;;;58.90;28.77;;;;;;;4.10;58.41;101697.45;3646991;78;98958;-81
2022/03/24 21:48:39;;;;;;;64.20;30.80;;;;;;;4.01;58.52;101694.63;3675005;78;98518;-82
2022/03/24 21:53:40;;;;;;;56.53;29.20;;;;;;;3.96;59.11;101699.36;3679720;79;99105;-81
2022/03/24 21:58:41;;;;;;;58.17;29.03;;;;;;;3.87;59.23;101692.45;3668048;78;98802;-81
2022/03/24 22:03:42;;;;;;;54.60;29.30;;;;;;;3.81;59.74;101692.83;3689479;79;98784;-81
2022/03/24 22:08:43;;;;;;;66.80;31.10;;;;;;;3.72;59.77;101691.94;3667065;78;31585;-81
2022/03/24 22:13:44;;;;;;;63.87;30.77;;;;;;;3.64;60.05;101681.73;3657213;79;98873;-81
2022/03/24 22:18:46;;;;;;;56.93;29.33;;;;;;;3.56;60.32;101688.66;3667586;78;98571;-80
2022/03/24 22:23:47;;;;;;;58.50;30.30;;;;;;;3.49;60.58;101690.98;3643485;79;98785;-81
2022/03/24 22:28:48;;;;;;;65.50;30.80;;;;;;;3.42;61.28;101689.20;3669543;78;98742;-81
2022/03/24 22:33:50;;;;;;;59.50;30.35;;;;;;;3.36;60.82;101686.32;3668808;79;98991;-81
2022/03/24 22:38:52;;;;;;;63.60;30.30;;;;;;;3.27;61.20;101685.38;3670866;78;31734;-80
2022/03/24 22:43:53;;;;;;;61.67;30.00;;;;;;;3.18;61.39;101687.72;3666407;79;98949;-80
2022/03/24 22:48:54;;;;;;;53.67;28.27;;;;;;;3.13;61.94;101681.00;3685930;78;98789;-82
2022/03/24 22:53:55;;;;;;;60.93;28.83;;;;;;;3.06;62.17;101680.02;3675226;79;98852;-81
2022/03/24 22:58:56;;;;;;;54.90;26.97;;;;;;;3.00;62.05;101683.13;3691374;78;98878;-80
2022/03/24 23:03:57;;;;;;;58.40;28.17;;;;;;;2.92;62.40;101681.89;3664065;80;99185;-80
2022/03/24 23:08:58;;;;;;;59.50;28.40;;;;;;;2.87;62.71;101679.78;3696718;78;33010;-81